createdAt,value
2023-04-23T00:01:20.659Z,88.34
2023-04-23T00:03:51.349Z,88.86
2023-04-23T00:06:22.561Z,88.27
2023-04-23T00:08:54.479Z,88.86
2023-04-23T00:11:23.088Z,89.13
2023-04-23T00:13:51.772Z,88.87
2023-04-23T00:16:21.563Z,89.60
2023-04-23T00:18:51.387Z,89.10
2023-04-23T00:21:19.836Z,89.30
2023-04-23T00:23:48.250Z,88.42
2023-04-23T00:26:18.649Z,88.79
2023-04-23T00:28:47.022Z,89.15
2023-04-23T00:31:15.670Z,90.16
2023-04-23T00:33:44.219Z,90.36
2023-04-23T00:36:14.153Z,90.10
2023-04-23T00:38:42.639Z,90.37
2023-04-23T00:41:11.216Z,90.14
2023-04-23T00:43:39.625Z,91.07
2023-04-23T00:46:08.535Z,90.48
2023-04-23T00:48:37.533Z,91.25
2023-04-23T00:51:07.381Z,91.18
2023-04-23T00:53:37.193Z,91.88
2023-04-23T00:56:07.307Z,92.00
2023-04-23T00:58:36.259Z,91.90
2023-04-23T01:01:05.145Z,92.28
2023-04-23T01:03:36.875Z,93.55
2023-04-23T01:06:05.741Z,93.84
2023-04-23T01:08:35.849Z,92.39
2023-04-23T01:11:06.689Z,92.39
2023-04-23T01:13:35.836Z,92.70
2023-04-23T01:16:04.314Z,93.55
2023-04-23T01:18:32.681Z,93.64
2023-04-23T01:21:01.947Z,93.66
2023-04-23T01:23:32.917Z,93.74
2023-04-23T01:26:01.462Z,94.23
2023-04-23T01:28:30.949Z,94.96
2023-04-23T01:31:00.732Z,95.06
2023-04-23T01:33:29.829Z,94.37
2023-04-23T01:35:59.018Z,94.45
2023-04-23T01:38:33.182Z,94.94
2023-04-23T01:41:01.344Z,95.22
2023-04-23T01:43:29.948Z,95.35
2023-04-23T01:45:59.561Z,95.16
2023-04-23T01:48:28.039Z,96.10
2023-04-23T01:50:56.487Z,96.22
2023-04-23T01:53:24.585Z,95.44
2023-04-23T01:55:55.276Z,95.74
2023-04-23T01:58:23.920Z,96.34
2023-04-23T02:00:52.231Z,96.39
2023-04-23T02:03:20.590Z,95.92
2023-04-23T02:05:49.816Z,95.48
2023-04-23T02:08:17.966Z,95.80
2023-04-23T02:10:46.191Z,95.65
2023-04-23T02:13:16.019Z,96.49
2023-04-23T02:15:44.483Z,96.95
2023-04-23T02:18:12.851Z,97.93
2023-04-23T02:20:41.651Z,99.54
2023-04-23T02:23:10.268Z,99.14
2023-04-23T02:25:39.538Z,99.83
2023-04-23T02:28:08.473Z,99.01
2023-04-23T02:30:38.207Z,98.87
2023-04-23T02:33:06.864Z,98.81
2023-04-23T02:35:35.041Z,100.00
2023-04-23T02:38:03.272Z,100.00
2023-04-23T02:40:31.588Z,100.00
2023-04-23T02:42:59.770Z,100.00
2023-04-23T02:45:27.969Z,100.00
2023-04-23T02:47:58.088Z,100.00
2023-04-23T02:50:26.287Z,100.00
2023-04-23T02:52:54.448Z,99.13
2023-04-23T02:55:25.316Z,100.00
2023-04-23T02:57:53.549Z,100.00
2023-04-23T03:00:21.775Z,100.00
2023-04-23T03:02:50.070Z,100.00
2023-04-23T03:05:19.803Z,100.00
2023-04-23T03:07:47.993Z,100.00
2023-04-23T03:10:16.144Z,100.00
2023-04-23T03:12:44.308Z,100.00
2023-04-23T03:15:12.916Z,100.00
2023-04-23T03:17:41.106Z,100.00
2023-04-23T03:20:11.722Z,100.00
2023-04-23T03:22:41.425Z,100.00
2023-04-23T03:25:10.337Z,100.00
2023-04-23T03:27:40.568Z,100.00
2023-04-23T03:30:10.184Z,100.00
2023-04-23T03:32:38.472Z,100.00
2023-04-23T03:35:07.457Z,100.00
2023-04-23T03:37:35.626Z,100.00
2023-04-23T03:40:07.875Z,100.00
2023-04-23T03:42:36.233Z,100.00
2023-04-23T03:45:04.818Z,100.00
2023-04-23T03:47:33.229Z,100.00
2023-04-23T03:50:01.559Z,100.00
2023-04-23T03:52:29.763Z,100.00
2023-04-23T03:54:58.092Z,100.00
2023-04-23T03:57:27.828Z,100.00
2023-04-23T03:59:56.021Z,100.00
2023-04-23T04:02:24.692Z,100.00
2023-04-23T04:04:55.123Z,100.00
2023-04-23T04:07:23.659Z,100.00
2023-04-23T04:09:51.837Z,100.00
2023-04-23T04:12:19.969Z,100.00
2023-04-23T04:14:49.644Z,100.00
2023-04-23T04:17:17.830Z,100.00
2023-04-23T04:19:46.388Z,100.00
2023-04-23T04:22:14.764Z,100.00
2023-04-23T04:24:43.996Z,100.00
2023-04-23T04:27:12.428Z,100.00
2023-04-23T04:29:41.304Z,100.00
2023-04-23T04:32:11.550Z,100.00
2023-04-23T04:34:40.492Z,100.00
2023-04-23T04:37:10.160Z,100.00
2023-04-23T04:39:38.431Z,100.00
2023-04-23T04:42:07.466Z,100.00
2023-04-23T04:44:37.653Z,99.93
2023-04-23T04:47:07.335Z,100.00
2023-04-23T04:49:37.269Z,100.00
2023-04-23T04:52:05.533Z,100.00
2023-04-23T04:54:33.760Z,100.00
2023-04-23T04:57:02.488Z,100.00
2023-04-23T04:59:30.771Z,100.00
2023-04-23T05:01:59.863Z,100.00
2023-04-23T05:04:28.220Z,100.00
2023-04-23T05:06:57.822Z,100.00
2023-04-23T05:09:26.831Z,100.00
2023-04-23T05:11:55.066Z,100.00
2023-04-23T05:14:23.346Z,100.00
2023-04-23T05:16:51.583Z,100.00
2023-04-23T05:19:19.854Z,100.00
2023-04-23T05:21:48.121Z,100.00
2023-04-23T05:24:17.801Z,100.00
2023-04-23T05:26:46.003Z,100.00
2023-04-23T05:29:18.038Z,99.24
2023-04-23T05:31:46.859Z,99.35
2023-04-23T05:34:15.123Z,98.17
2023-04-23T05:36:43.262Z,98.59
2023-04-23T05:39:11.590Z,98.64
2023-04-23T05:41:41.291Z,98.94
2023-04-23T05:44:09.588Z,96.96
2023-04-23T05:46:38.898Z,96.37
2023-04-23T05:49:07.259Z,95.90
2023-04-23T05:51:35.433Z,95.88
2023-04-23T05:54:03.672Z,96.20
2023-04-23T05:56:31.882Z,96.11
2023-04-23T05:59:01.554Z,95.15
2023-04-23T06:01:30.057Z,95.82
2023-04-23T06:03:58.847Z,94.38
2023-04-23T06:06:28.185Z,93.58
2023-04-23T06:08:57.865Z,93.24
2023-04-23T06:11:26.241Z,94.06
2023-04-23T06:13:56.732Z,93.37
2023-04-23T06:16:26.533Z,91.78
2023-04-23T06:18:56.352Z,89.77
2023-04-23T06:21:24.893Z,88.00
2023-04-23T06:23:53.138Z,84.85
2023-04-23T06:26:21.416Z,83.80
2023-04-23T06:28:49.694Z,83.27
2023-04-23T06:31:18.011Z,81.01
2023-04-23T06:33:47.620Z,80.41
2023-04-23T06:36:15.864Z,79.94
2023-04-23T06:38:44.761Z,79.27
2023-04-23T06:41:14.068Z,78.16
2023-04-23T06:43:42.295Z,77.11
2023-04-23T06:46:10.818Z,77.43
2023-04-23T06:48:39.005Z,76.96
2023-04-23T06:51:08.586Z,76.17
2023-04-23T06:53:36.746Z,76.38
2023-04-23T06:56:05.054Z,75.91
2023-04-23T06:58:33.225Z,75.42
2023-04-23T07:01:04.353Z,75.46
2023-04-23T07:03:32.896Z,73.07
2023-04-23T07:06:01.554Z,72.61
2023-04-23T07:08:31.349Z,72.64
2023-04-23T07:10:59.835Z,71.97
2023-04-23T07:13:28.178Z,69.88
2023-04-23T07:15:56.481Z,68.10
2023-04-23T07:18:25.302Z,68.25
2023-04-23T07:20:53.620Z,68.23
2023-04-23T07:23:22.475Z,69.28
2023-04-23T07:25:56.331Z,68.48
2023-04-23T07:28:24.599Z,68.47
2023-04-23T07:30:52.998Z,65.78
2023-04-23T07:33:21.761Z,66.40
2023-04-23T07:35:50.242Z,66.93
2023-04-23T07:38:18.646Z,66.51
2023-04-23T07:40:47.707Z,68.40
2023-04-23T07:43:17.424Z,66.04
2023-04-23T07:45:45.670Z,64.92
2023-04-23T07:48:13.940Z,64.34
2023-04-23T07:50:42.205Z,65.93
2023-04-23T07:53:10.436Z,65.62
2023-04-23T07:55:38.614Z,65.21
2023-04-23T07:58:06.810Z,65.31
2023-04-23T08:00:37.398Z,65.49
2023-04-23T08:03:06.314Z,65.95
2023-04-23T08:05:34.748Z,64.79
2023-04-23T08:08:02.969Z,61.59
2023-04-23T08:10:31.149Z,64.24
2023-04-23T08:12:59.335Z,63.58
2023-04-23T08:15:27.646Z,62.45
2023-04-23T08:17:57.234Z,60.36
2023-04-23T08:20:25.393Z,61.92
2023-04-23T08:22:54.252Z,63.50
2023-04-23T08:25:22.485Z,61.15
2023-04-23T08:27:50.798Z,59.11
2023-04-23T08:30:19.022Z,58.27
2023-04-23T08:32:51.003Z,59.03
2023-04-23T08:35:21.108Z,60.87
2023-04-23T08:37:49.465Z,58.99
2023-04-23T08:40:18.139Z,58.00
2023-04-23T08:42:51.210Z,57.86
2023-04-23T08:45:20.191Z,58.91
2023-04-23T08:47:48.438Z,58.50
2023-04-23T08:50:18.278Z,57.68
2023-04-23T08:52:54.455Z,55.76
2023-04-23T08:55:24.248Z,57.34
2023-04-23T08:57:53.445Z,57.61
2023-04-23T09:00:24.120Z,57.02
2023-04-23T09:02:52.693Z,55.55
2023-04-23T09:05:21.458Z,57.20
2023-04-23T09:07:51.299Z,56.05
2023-04-23T09:10:19.717Z,58.32
2023-04-23T09:12:48.439Z,55.66
2023-04-23T09:15:17.002Z,57.44
2023-04-23T09:17:47.351Z,55.48
2023-04-23T09:20:16.459Z,54.78
2023-04-23T09:22:47.323Z,54.39
2023-04-23T09:25:19.774Z,54.71
2023-04-23T09:27:49.038Z,51.49
2023-04-23T09:30:18.238Z,51.99
2023-04-23T09:32:48.123Z,53.34
2023-04-23T09:35:20.054Z,55.34
2023-04-23T09:37:50.457Z,52.83
2023-04-23T09:40:22.178Z,52.88
2023-04-23T09:42:52.757Z,52.55
2023-04-23T09:45:22.777Z,53.82
2023-04-23T09:47:53.188Z,56.08
2023-04-23T09:50:21.982Z,55.94
2023-04-23T09:52:57.321Z,53.57
2023-04-23T09:55:38.909Z,54.00
2023-04-23T09:58:08.510Z,52.30
2023-04-23T10:00:38.437Z,52.58
2023-04-23T10:03:08.952Z,51.73
2023-04-23T10:05:59.566Z,55.24
2023-04-23T10:08:29.175Z,55.59
2023-04-23T10:11:09.983Z,52.58
2023-04-23T10:13:47.634Z,53.07
2023-04-23T10:16:22.435Z,54.56
2023-04-23T10:18:55.570Z,54.91
2023-04-23T10:21:32.125Z,55.57
2023-04-23T10:24:07.397Z,53.05
2023-04-23T10:26:40.346Z,54.80
2023-04-23T10:29:14.887Z,56.41
2023-04-23T10:31:44.099Z,53.60
2023-04-23T10:34:12.684Z,55.22
2023-04-23T10:36:41.078Z,54.30
2023-04-23T10:39:10.618Z,52.87
2023-04-23T10:41:42.463Z,52.54
2023-04-23T10:44:15.860Z,50.17
2023-04-23T10:46:53.461Z,48.88
2023-04-23T10:49:24.524Z,51.51
2023-04-23T10:52:18.467Z,52.93
2023-04-23T10:54:51.001Z,52.93
2023-04-23T10:57:20.737Z,50.91
2023-04-23T10:59:54.008Z,49.33
2023-04-23T11:02:24.679Z,49.62
2023-04-23T11:04:57.705Z,52.82
2023-04-23T11:07:31.288Z,50.71
2023-04-23T11:10:01.025Z,52.28
2023-04-23T11:12:34.383Z,52.67
2023-04-23T11:15:12.650Z,50.07
2023-04-23T11:18:06.133Z,50.53
2023-04-23T11:20:34.637Z,49.85
2023-04-23T11:23:02.801Z,46.87
2023-04-23T11:25:31.369Z,48.81
2023-04-23T11:28:01.519Z,50.06
2023-04-23T11:30:31.365Z,48.83
2023-04-23T11:33:01.376Z,50.04
2023-04-23T11:35:32.462Z,48.45
2023-04-23T11:38:00.624Z,47.01
2023-04-23T11:40:31.148Z,46.31
2023-04-23T11:43:00.893Z,45.67
2023-04-23T11:45:30.782Z,47.75
2023-04-23T11:48:01.826Z,48.02
2023-04-23T11:50:33.314Z,49.53
2023-04-23T11:53:06.720Z,48.57
2023-04-23T11:55:34.990Z,50.96
2023-04-23T11:58:04.796Z,49.46
2023-04-23T12:00:33.050Z,45.96
2023-04-23T12:03:02.915Z,47.89
2023-04-23T12:05:33.115Z,47.30
2023-04-23T12:08:12.548Z,47.18
2023-04-23T12:10:45.745Z,49.02
2023-04-23T12:13:19.657Z,47.38
2023-04-23T12:15:48.961Z,50.40
2023-04-23T12:18:17.953Z,46.74
2023-04-23T12:20:47.205Z,47.38
2023-04-23T12:23:16.117Z,48.99
2023-04-23T12:25:44.500Z,48.97
2023-04-23T12:28:12.761Z,45.89
2023-04-23T12:30:46.261Z,45.51
2023-04-23T12:33:15.104Z,45.55
2023-04-23T12:35:44.420Z,46.14
2023-04-23T12:38:24.032Z,44.47
2023-04-23T12:40:52.344Z,43.37
2023-04-23T12:43:20.595Z,43.05
2023-04-23T12:45:51.342Z,42.74
2023-04-23T12:48:19.869Z,44.55
2023-04-23T12:50:48.689Z,43.18
2023-04-23T12:53:17.011Z,41.80
2023-04-23T12:55:46.002Z,41.82
2023-04-23T12:58:14.442Z,42.61
2023-04-23T13:00:42.693Z,42.14
2023-04-23T13:03:14.224Z,41.53
2023-04-23T13:05:42.679Z,42.74
2023-04-23T13:08:10.913Z,41.67
2023-04-23T13:10:39.160Z,41.51
2023-04-23T13:13:07.361Z,40.22
2023-04-23T13:15:35.600Z,41.41
2023-04-23T13:18:03.973Z,40.26
2023-04-23T13:20:33.607Z,41.07
2023-04-23T13:23:03.172Z,42.11
2023-04-23T13:25:31.602Z,43.55
2023-04-23T13:28:00.809Z,41.78
2023-04-23T13:30:29.049Z,43.18
2023-04-23T13:32:59.336Z,42.98
2023-04-23T13:35:28.079Z,41.64
2023-04-23T13:37:57.828Z,41.77
2023-04-23T13:40:26.117Z,42.17
2023-04-23T13:42:55.122Z,44.48
2023-04-23T13:45:23.627Z,46.01
2023-04-23T13:47:51.837Z,43.59
2023-04-23T13:50:20.154Z,42.71
2023-04-23T13:52:48.328Z,44.19
2023-04-23T13:55:18.136Z,43.39
2023-04-23T13:57:46.473Z,44.17
2023-04-23T14:00:15.693Z,44.05
2023-04-23T14:02:44.024Z,42.93
2023-04-23T14:05:12.246Z,43.22
2023-04-23T14:07:40.358Z,45.35
2023-04-23T14:10:09.820Z,42.04
2023-04-23T14:12:39.993Z,41.56
2023-04-23T14:15:09.735Z,44.18
2023-04-23T14:17:39.498Z,43.24
2023-04-23T14:20:09.418Z,40.66
2023-04-23T14:22:37.952Z,43.39
2023-04-23T14:25:10.925Z,42.18
2023-04-23T14:27:46.334Z,41.47
2023-04-23T14:30:20.374Z,41.05
2023-04-23T14:32:50.423Z,41.94
2023-04-23T14:35:24.543Z,42.32
2023-04-23T14:37:57.707Z,43.63
2023-04-23T14:40:26.017Z,42.46
2023-04-23T14:42:59.307Z,43.37
2023-04-23T14:45:33.138Z,43.83
2023-04-23T14:48:04.762Z,44.22
2023-04-23T14:50:32.964Z,46.94
2023-04-23T14:53:03.473Z,46.60
2023-04-23T14:55:34.846Z,47.11
2023-04-23T14:58:04.394Z,46.35
2023-04-23T15:00:32.547Z,47.42
2023-04-23T15:03:02.870Z,47.11
2023-04-23T15:05:31.331Z,49.31
2023-04-23T15:07:59.501Z,49.48
2023-04-23T15:10:27.745Z,49.38
2023-04-23T15:13:03.478Z,50.64
2023-04-23T15:15:45.212Z,51.66
2023-04-23T15:18:14.898Z,51.52
2023-04-23T15:20:43.171Z,51.96
2023-04-23T15:23:12.025Z,52.32
2023-04-23T15:25:40.785Z,51.26
2023-04-23T15:28:09.237Z,52.11
2023-04-23T15:33:08.159Z,52.26
2023-04-23T15:35:36.366Z,52.67
2023-04-23T15:38:04.605Z,52.20
2023-04-23T15:40:33.450Z,52.85
2023-04-23T15:43:01.620Z,53.39
2023-04-23T15:45:29.896Z,52.69
2023-04-23T15:47:59.513Z,53.70
2023-04-23T15:50:27.726Z,52.86
2023-04-23T15:52:58.394Z,52.53
2023-04-23T15:55:26.887Z,53.10
2023-04-23T15:57:55.072Z,53.96
2023-04-23T16:00:23.235Z,53.63
2023-04-23T16:02:51.701Z,52.30
2023-04-23T16:05:23.489Z,52.44
2023-04-23T16:07:51.760Z,52.94
2023-04-23T16:10:20.205Z,52.79
2023-04-23T16:12:48.924Z,53.25
2023-04-23T16:15:17.126Z,54.31
2023-04-23T16:17:45.464Z,54.79
2023-04-23T16:20:14.006Z,54.52
2023-04-23T16:22:44.749Z,54.18
2023-04-23T16:25:13.063Z,54.47
2023-04-23T16:27:41.381Z,55.13
2023-04-23T16:30:10.830Z,55.25
2023-04-23T16:32:39.588Z,56.09
2023-04-23T16:35:08.496Z,55.97
2023-04-23T16:37:36.680Z,58.95
2023-04-23T16:40:07.625Z,64.26
2023-04-23T16:42:35.805Z,68.13
2023-04-23T16:45:04.022Z,73.26
2023-04-23T16:47:32.370Z,72.55
2023-04-23T16:50:02.776Z,71.80
2023-04-23T16:52:31.165Z,73.22
2023-04-23T16:54:59.415Z,77.35
2023-04-23T16:57:29.403Z,77.20
2023-04-23T16:59:58.008Z,81.68
2023-04-23T17:02:26.417Z,80.95
2023-04-23T17:04:55.277Z,82.48
2023-04-23T17:07:23.946Z,81.38
2023-04-23T17:09:52.218Z,83.23
2023-04-23T17:12:20.494Z,87.03
2023-04-23T17:14:50.148Z,89.85
2023-04-23T17:17:18.421Z,87.38
2023-04-23T17:19:46.919Z,86.76
2023-04-23T17:22:15.122Z,86.73
2023-04-23T17:24:43.665Z,85.12
2023-04-23T17:27:12.149Z,86.66
2023-04-23T17:29:40.408Z,86.69
2023-04-23T17:32:10.066Z,87.96
2023-04-23T17:34:38.454Z,90.11
2023-04-23T17:37:06.690Z,91.24
2023-04-23T17:39:34.914Z,93.85
2023-04-23T17:42:03.230Z,94.38
2023-04-23T17:44:31.726Z,98.34
2023-04-23T17:46:59.942Z,100.00
2023-04-23T17:49:29.805Z,100.00
2023-04-23T17:51:58.163Z,100.00
2023-04-23T17:54:56.900Z,100.00
2023-04-23T17:57:25.191Z,100.00
2023-04-23T17:59:53.433Z,98.53
2023-04-23T18:02:21.987Z,97.48
2023-04-23T18:04:51.766Z,98.77
2023-04-23T18:07:20.466Z,98.69
2023-04-23T18:09:49.035Z,99.06
2023-04-23T18:12:17.532Z,96.03
2023-04-23T18:14:45.811Z,94.61
2023-04-23T18:17:17.534Z,97.77
2023-04-23T18:19:45.830Z,100.00
2023-04-23T18:22:15.927Z,100.00
2023-04-23T18:24:44.483Z,100.00
2023-04-23T18:27:12.763Z,100.00
2023-04-23T18:29:41.865Z,100.00
2023-04-23T18:32:12.336Z,100.00
2023-04-23T18:34:44.399Z,100.00
2023-04-23T18:37:33.120Z,100.00
2023-04-23T18:40:01.770Z,100.00
2023-04-23T18:42:30.129Z,100.00
2023-04-23T18:44:58.397Z,100.00
2023-04-23T18:47:32.334Z,100.00
2023-04-23T18:50:03.451Z,100.00
2023-04-23T18:52:33.132Z,100.00
2023-04-23T18:55:01.421Z,100.00
2023-04-23T18:57:29.708Z,100.00
2023-04-23T18:59:58.020Z,100.00
2023-04-23T19:02:35.076Z,100.00
2023-04-23T19:05:04.573Z,100.00
2023-04-23T19:07:37.250Z,100.00
2023-04-23T19:10:06.128Z,100.00
2023-04-23T19:12:34.307Z,100.00
2023-04-23T19:15:02.704Z,100.00
2023-04-23T19:17:31.022Z,100.00
2023-04-23T19:19:59.233Z,100.00
2023-04-23T19:22:27.462Z,100.00
2023-04-23T19:25:16.354Z,100.00
2023-04-23T19:27:44.893Z,100.00
2023-04-23T19:30:14.020Z,100.00
2023-04-23T19:32:42.488Z,100.00
2023-04-23T19:35:11.992Z,100.00
2023-04-23T19:37:40.246Z,100.00
2023-04-23T19:40:11.038Z,100.00
2023-04-23T19:42:39.729Z,100.00
2023-04-23T19:45:08.985Z,100.00
2023-04-23T19:47:40.283Z,100.00
2023-04-23T19:50:09.889Z,100.00
2023-04-23T19:52:38.280Z,100.00
2023-04-23T19:55:08.131Z,100.00
2023-04-23T19:57:37.917Z,100.00
2023-04-23T20:00:07.861Z,100.00
2023-04-23T20:02:36.926Z,100.00
2023-04-23T20:05:06.037Z,100.00
2023-04-23T20:07:34.955Z,100.00
2023-04-23T20:10:03.870Z,100.00
2023-04-23T20:12:33.484Z,100.00
2023-04-23T20:15:03.300Z,100.00
2023-04-23T20:17:31.758Z,100.00
2023-04-23T20:20:02.122Z,100.00
2023-04-23T20:22:30.968Z,100.00
2023-04-23T20:24:59.290Z,100.00
2023-04-23T20:27:28.088Z,100.00
2023-04-23T20:29:56.492Z,100.00
2023-04-23T20:32:26.075Z,100.00
2023-04-23T20:34:54.523Z,100.00
2023-04-23T20:37:22.902Z,100.00
2023-04-23T20:39:51.252Z,100.00
2023-04-23T20:42:19.603Z,100.00
2023-04-23T20:44:49.079Z,100.00
2023-04-23T20:47:17.992Z,100.00
2023-04-23T20:49:47.621Z,100.00
2023-04-23T20:52:16.575Z,100.00
2023-04-23T20:54:44.944Z,100.00
2023-04-23T20:57:13.271Z,100.00
2023-04-23T20:59:41.879Z,100.00
2023-04-23T21:02:13.049Z,100.00
2023-04-23T21:04:41.455Z,100.00
2023-04-23T21:07:11.227Z,100.00
2023-04-23T21:09:39.387Z,100.00
2023-04-23T21:12:07.777Z,100.00
2023-04-23T21:14:36.354Z,100.00
2023-04-23T21:17:04.570Z,100.00
2023-04-23T21:19:32.716Z,100.00
2023-04-23T21:22:00.954Z,100.00
2023-04-23T21:24:30.579Z,100.00
2023-04-23T21:26:58.825Z,100.00
2023-04-23T21:29:27.235Z,100.00
2023-04-23T21:31:55.683Z,100.00
2023-04-23T21:34:24.116Z,100.00
2023-04-23T21:36:52.386Z,100.00
2023-04-23T21:39:20.552Z,100.00
2023-04-23T21:41:50.336Z,100.00
2023-04-23T21:44:18.510Z,100.00
2023-04-23T21:46:46.860Z,100.00
2023-04-23T21:49:15.116Z,100.00
2023-04-23T21:51:43.432Z,100.00
2023-04-23T21:54:11.625Z,100.00
2023-04-23T21:56:40.023Z,100.00
2023-04-23T21:59:09.739Z,100.00
2023-04-23T22:01:38.036Z,100.00
2023-04-23T22:04:06.465Z,100.00
2023-04-23T22:06:35.301Z,100.00
2023-04-23T22:09:03.763Z,100.00
2023-04-23T22:11:32.013Z,100.00
2023-04-23T22:14:00.615Z,100.00
2023-04-23T22:16:30.430Z,100.00
2023-04-23T22:18:58.733Z,100.00
2023-04-23T22:21:26.975Z,100.00
2023-04-23T22:23:55.256Z,100.00
2023-04-23T22:26:23.390Z,100.00
2023-04-23T22:28:51.598Z,100.00
2023-04-23T22:31:19.825Z,100.00
2023-04-23T22:33:49.442Z,100.00
2023-04-23T22:36:18.144Z,100.00
2023-04-23T22:38:46.610Z,100.00
2023-04-23T22:41:14.788Z,100.00
2023-04-23T22:43:42.902Z,100.00
2023-04-23T22:46:11.229Z,100.00
2023-04-23T22:48:45.132Z,100.00
2023-04-23T22:51:15.611Z,100.00
2023-04-23T22:53:43.771Z,100.00
2023-04-23T22:56:12.037Z,100.00
2023-04-23T22:58:40.521Z,100.00
2023-04-23T23:01:08.704Z,100.00
2023-04-23T23:03:37.026Z,100.00
2023-04-23T23:06:05.693Z,100.00
2023-04-23T23:08:35.344Z,100.00
2023-04-23T23:11:03.539Z,100.00
2023-04-23T23:13:32.350Z,100.00
2023-04-23T23:16:04.753Z,100.00
2023-04-23T23:18:32.972Z,100.00
2023-04-23T23:21:01.218Z,100.00
2023-04-23T23:23:29.358Z,100.00
2023-04-23T23:26:00.040Z,100.00
2023-04-23T23:28:28.591Z,100.00
2023-04-23T23:30:57.959Z,100.00
2023-04-23T23:33:27.365Z,100.00
2023-04-23T23:35:55.810Z,100.00
2023-04-23T23:38:24.058Z,100.00
2023-04-23T23:40:52.249Z,100.00
2023-04-23T23:43:21.776Z,100.00
2023-04-23T23:45:50.083Z,100.00
2023-04-23T23:48:18.723Z,100.00
2023-04-23T23:50:47.095Z,100.00
2023-04-23T23:53:15.192Z,100.00
2023-04-23T23:55:43.387Z,100.00
2023-04-23T23:58:11.743Z,100.00
